Time;durP1;ratioP1;P1;durP2;ratioP2;P2;SDS_P1;SDS_P2;PMS_P1;PMS_P2;Temp;Humidity;BMP_temperature;BMP_pressure;BME280_temperature;BME280_humidity;BME280_pressure;Samples;Min_cycle;Max_cycle;Signal;HPM_P1;HPM_P2
2023/04/26 00:00:16;;;;;;;3.83;2.13;;;;;;;5.05;100.00;93828.09;4796377;29;20126;-58
2023/04/26 00:03:03;;;;;;;3.92;2.33;;;;;;;4.89;100.00;93833.03;4804862;29;20101;-58
2023/04/26 00:05:50;;;;;;;4.03;2.20;;;;;;;4.89;100.00;93839.28;4803554;29;20412;-58
2023/04/26 00:08:37;;;;;;;4.10;2.40;;;;;;;5.02;100.00;93844.41;4803775;29;20066;-58
2023/04/26 00:11:24;;;;;;;3.95;2.28;;;;;;;5.13;100.00;93837.84;4790116;29;20054;-61
2023/04/26 00:14:12;;;;;;;3.78;2.30;;;;;;;5.20;100.00;93837.84;4802464;29;20054;-58
2023/04/26 00:16:59;;;;;;;3.50;2.00;;;;;;;4.99;100.00;93838.56;4789869;29;20051;-58
2023/04/26 00:19:45;;;;;;;3.47;2.20;;;;;;;4.98;100.00;93841.66;4804486;29;20070;-58
2023/04/26 00:22:32;;;;;;;3.70;2.40;;;;;;;4.96;100.00;93844.75;4806051;29;20054;-59
2023/04/26 00:25:19;;;;;;;3.83;2.53;;;;;;;5.11;100.00;93836.66;4806686;29;20132;-58
2023/04/26 00:28:06;;;;;;;4.10;2.42;;;;;;;5.10;100.00;93838.59;4807918;29;20556;-59
2023/04/26 00:30:56;;;;;;;4.80;2.95;;;;;;;4.63;100.00;93843.03;4807643;29;20058;-57
2023/04/26 00:33:43;;;;;;;5.60;3.40;;;;;;;4.45;100.00;93842.09;4807034;29;20077;-57
2023/04/26 00:36:31;;;;;;;6.30;3.27;;;;;;;4.63;100.00;93840.31;4808238;29;20055;-57
2023/04/26 00:39:18;;;;;;;5.40;3.38;;;;;;;4.81;100.00;93837.69;4807835;29;20054;-57
2023/04/26 00:42:05;;;;;;;4.60;3.03;;;;;;;5.08;100.00;93842.88;4808104;29;20055;-58
2023/04/26 00:44:56;;;;;;;5.63;2.97;;;;;;;5.20;100.00;93840.56;4808149;29;20047;-57
2023/04/26 00:47:43;;;;;;;6.00;3.20;;;;;;;5.34;100.00;93841.78;4807228;29;20146;-58
2023/04/26 00:50:31;;;;;;;6.57;2.77;;;;;;;5.35;100.00;93849.59;4808013;29;20051;-58
2023/04/26 00:53:18;;;;;;;4.78;2.40;;;;;;;5.40;100.00;93849.19;4808051;29;20051;-57
2023/04/26 00:56:09;;;;;;;3.65;2.17;;;;;;;5.39;100.00;93842.22;4807778;29;20188;-57
2023/04/26 00:58:56;;;;;;;3.72;2.08;;;;;;;5.45;100.00;93847.25;4807372;29;20077;-57
2023/04/26 01:01:42;;;;;;;4.15;2.45;;;;;;;5.48;100.00;93850.00;4796879;29;20054;-58
2023/04/26 01:04:30;;;;;;;3.93;2.07;;;;;;;5.54;100.00;93843.03;4806622;29;20496;-58
2023/04/26 01:07:17;;;;;;;3.40;1.95;;;;;;;5.47;100.00;93839.50;4807146;29;20058;-58
2023/04/26 01:10:05;;;;;;;6.18;3.63;;;;;;;4.92;100.00;93835.78;4807799;29;20107;-58
2023/04/26 01:12:51;;;;;;;7.05;3.20;;;;;;;4.74;100.00;93843.06;4805744;29;20183;-57
2023/04/26 01:15:45;;;;;;;6.45;2.85;;;;;;;4.74;100.00;93843.84;4805981;29;20466;-58
2023/04/26 01:18:32;;;;;;;5.37;2.90;;;;;;;4.96;100.00;93846.69;4806645;29;20055;-58
2023/04/26 01:21:21;;;;;;;5.80;3.20;;;;;;;5.09;100.00;93834.34;4807271;29;20058;-58
2023/04/26 01:24:09;;;;;;;4.95;2.90;;;;;;;5.01;100.00;93835.47;4807140;29;20058;-58
2023/04/26 01:26:56;;;;;;;5.35;2.97;;;;;;;5.06;100.00;93832.34;4807458;29;20043;-58
2023/04/26 01:29:44;;;;;;;4.55;2.70;;;;;;;5.08;100.00;93835.47;4807064;29;20100;-58
2023/04/26 01:32:31;;;;;;;4.73;2.87;;;;;;;4.64;100.00;93835.66;4807019;29;20108;-58
2023/04/26 01:35:18;;;;;;;5.05;3.08;;;;;;;4.95;100.00;93832.31;4806523;29;20066;-58
2023/04/26 01:38:05;;;;;;;6.47;3.45;;;;;;;5.05;100.00;93833.53;4795000;29;20058;-58
2023/04/26 01:40:52;;;;;;;5.72;3.15;;;;;;;5.22;100.00;93829.31;4806446;29;20070;-58
2023/04/26 01:43:39;;;;;;;4.75;2.67;;;;;;;5.37;100.00;93833.66;4806897;29;20444;-58
2023/04/26 01:46:26;;;;;;;5.03;2.80;;;;;;;5.34;100.00;93831.69;4805223;29;20084;-58
2023/04/26 01:49:13;;;;;;;4.78;2.50;;;;;;;5.41;100.00;93830.91;4807094;29;20405;-58
2023/04/26 01:52:00;;;;;;;4.10;2.50;;;;;;;5.50;100.00;93834.06;4794891;29;20058;-58
2023/04/26 01:54:47;;;;;;;4.57;2.63;;;;;;;5.48;100.00;93828.22;4793368;29;20061;-58
2023/04/26 01:57:33;;;;;;;4.38;2.70;;;;;;;5.49;100.00;93829.00;4805823;29;20064;-58
2023/04/26 02:00:20;;;;;;;4.23;2.43;;;;;;;4.99;100.00;93824.19;4782573;29;20055;-57
2023/04/26 02:03:07;;;;;;;3.70;2.13;;;;;;;5.25;100.00;93823.13;4805667;29;20883;-62
2023/04/26 02:05:54;;;;;;;3.70;2.20;;;;;;;5.27;100.00;93828.97;4805382;29;20051;-58
2023/04/26 02:08:41;;;;;;;4.88;2.47;;;;;;;5.32;100.00;93825.06;4794705;29;20055;-57
2023/04/26 02:11:28;;;;;;;3.80;2.30;;;;;;;5.36;100.00;93829.34;4805300;29;20421;-58
2023/04/26 02:14:15;;;;;;;5.77;2.60;;;;;;;5.40;100.00;93821.97;4805079;29;20043;-57
2023/04/26 02:17:03;;;;;;;4.80;2.90;;;;;;;5.47;100.00;93823.16;4804323;29;20047;-57
2023/04/26 02:19:49;;;;;;;4.20;2.50;;;;;;;5.55;100.00;93816.56;4805229;29;20066;-57
2023/04/26 02:22:36;;;;;;;4.22;2.60;;;;;;;5.29;100.00;93823.91;4805518;29;20061;-58
2023/04/26 02:25:23;;;;;;;6.00;3.65;;;;;;;5.09;100.00;93831.59;4805691;29;20133;-57
2023/04/26 02:28:10;;;;;;;6.70;3.90;;;;;;;4.61;100.00;93831.75;4806277;29;20055;-58
2023/04/26 02:30:57;;;;;;;5.85;3.47;;;;;;;4.54;100.00;93824.31;4805666;29;20059;-57
2023/04/26 02:33:44;;;;;;;7.00;4.00;;;;;;;4.25;100.00;93839.66;4804602;29;20055;-57
2023/04/26 02:36:31;;;;;;;7.13;4.28;;;;;;;4.07;100.00;93844.19;4804550;29;20107;-57
2023/04/26 02:39:19;;;;;;;7.38;4.50;;;;;;;4.13;100.00;93848.88;4805485;29;20046;-57
2023/04/26 02:42:09;;;;;;;8.40;4.83;;;;;;;4.69;100.00;93838.00;4805645;29;20131;-58
2023/04/26 02:44:56;;;;;;;11.68;5.32;;;;;;;4.53;100.00;93835.59;4805812;29;20086;-57
2023/04/26 02:47:43;;;;;;;10.20;5.53;;;;;;;4.56;100.00;93827.44;4805844;29;20490;-57
2023/04/26 02:50:30;;;;;;;9.25;5.10;;;;;;;4.55;100.00;93833.28;4805922;29;20055;-58
2023/04/26 02:53:17;;;;;;;9.77;5.32;;;;;;;4.69;100.00;93829.84;4792704;29;20062;-58
2023/04/26 02:56:04;;;;;;;9.10;4.67;;;;;;;4.80;100.00;93826.00;4791179;29;20059;-58
2023/04/26 02:58:51;;;;;;;9.07;5.00;;;;;;;4.62;100.00;93830.59;4805227;29;20059;-58
2023/04/26 03:01:39;;;;;;;10.25;5.00;;;;;;;4.71;100.00;93833.75;4805858;29;20051;-58
2023/04/26 03:04:26;;;;;;;9.02;4.43;;;;;;;4.87;100.00;93827.22;4792003;29;20054;-57
2023/04/26 03:07:13;;;;;;;9.75;5.32;;;;;;;4.84;100.00;93823.31;4804783;29;20412;-57
2023/04/26 03:10:00;;;;;;;9.73;4.73;;;;;;;4.76;100.00;93817.06;4805213;29;20054;-58
2023/04/26 03:12:47;;;;;;;10.73;5.32;;;;;;;4.54;100.00;93815.41;4805391;29;20058;-57
2023/04/26 03:15:34;;;;;;;9.98;5.00;;;;;;;4.71;100.00;93816.63;4805060;29;20505;-58
2023/04/26 03:18:21;;;;;;;9.57;5.18;;;;;;;4.87;100.00;93810.91;4805238;29;20063;-58
2023/04/26 03:21:08;;;;;;;9.30;5.43;;;;;;;4.96;100.00;93814.81;4805703;29;20058;-58
2023/04/26 03:23:55;;;;;;;9.10;5.20;;;;;;;4.86;100.00;93806.63;4805815;29;20051;-58
2023/04/26 03:26:41;;;;;;;9.82;5.13;;;;;;;4.83;100.00;93813.63;4804794;29;20062;-58
2023/04/26 03:29:28;;;;;;;12.18;6.32;;;;;;;4.33;100.00;93802.47;4791920;29;20365;-57
2023/04/26 03:32:15;;;;;;;11.15;5.82;;;;;;;4.28;100.00;93803.59;4805138;29;20552;-57
2023/04/26 03:35:03;;;;;;;11.38;6.15;;;;;;;4.28;100.00;93798.16;4805393;29;20112;-58
2023/04/26 03:37:50;;;;;;;11.70;5.93;;;;;;;4.28;100.00;93800.88;4805234;29;20067;-57
2023/04/26 03:40:39;;;;;;;12.27;5.78;;;;;;;4.15;100.00;93794.19;4805272;29;20135;-57
2023/04/26 03:43:25;;;;;;;14.15;6.53;;;;;;;4.15;100.00;93803.13;4802668;29;20055;-62
2023/04/26 03:46:12;;;;;;;10.73;5.70;;;;;;;4.10;100.00;93802.69;4781453;29;20047;-57
2023/04/26 03:48:59;;;;;;;9.52;4.80;;;;;;;4.06;100.00;93804.59;4804703;29;20057;-57
2023/04/26 03:51:46;;;;;;;11.33;4.97;;;;;;;4.04;100.00;93806.91;4805315;29;20116;-58
2023/04/26 03:54:33;;;;;;;8.68;4.53;;;;;;;3.99;100.00;93808.81;4803991;29;20361;-57
2023/04/26 03:57:20;;;;;;;9.48;4.72;;;;;;;3.83;100.00;93811.00;4806325;29;20149;-57
2023/04/26 04:00:12;;;;;;;10.40;4.97;;;;;;;3.97;100.00;93808.41;4807131;29;20058;-58
2023/04/26 04:02:59;;;;;;;9.85;5.18;;;;;;;4.10;100.00;93810.81;4808470;29;20069;-57
2023/04/26 04:05:46;;;;;;;8.50;4.60;;;;;;;3.88;100.00;93807.94;4807171;29;20057;-58
2023/04/26 04:08:33;;;;;;;8.88;4.68;;;;;;;4.05;100.00;93801.09;4808466;29;20062;-58
2023/04/26 04:11:20;;;;;;;10.43;4.78;;;;;;;3.86;100.00;93804.03;4808870;29;20054;-57
2023/04/26 04:14:07;;;;;;;9.00;4.70;;;;;;;3.93;100.00;93804.13;4807488;29;20208;-57
2023/04/26 04:16:54;;;;;;;8.85;4.70;;;;;;;3.80;100.00;93803.59;4808672;29;20157;-57
2023/04/26 04:19:41;;;;;;;8.30;4.00;;;;;;;3.80;100.00;93812.56;4794880;29;20062;-57
2023/04/26 04:22:27;;;;;;;7.60;4.60;;;;;;;3.87;100.00;93811.03;4806983;29;20059;-59
2023/04/26 04:25:15;;;;;;;8.50;4.90;;;;;;;3.77;100.00;93818.72;4807218;29;20096;-58
2023/04/26 04:28:02;;;;;;;9.38;5.22;;;;;;;3.85;100.00;93827.69;4808587;29;20527;-58
2023/04/26 04:30:49;;;;;;;9.73;5.43;;;;;;;3.78;100.00;93820.28;4808368;29;20055;-58
2023/04/26 04:33:36;;;;;;;9.00;4.87;;;;;;;4.00;100.00;93823.16;4808021;29;20564;-58
2023/04/26 04:36:25;;;;;;;11.25;5.22;;;;;;;4.02;100.00;93818.13;4794569;29;20134;-59
2023/04/26 04:39:14;;;;;;;8.43;4.53;;;;;;;4.10;100.00;93822.47;4807541;29;20385;-58
2023/04/26 04:42:01;;;;;;;10.70;5.25;;;;;;;4.17;100.00;93819.03;4806442;29;20043;-59
2023/04/26 04:44:49;;;;;;;10.02;5.28;;;;;;;4.23;100.00;93816.75;4800042;29;20058;-58
2023/04/26 04:47:36;;;;;;;8.97;4.90;;;;;;;4.32;100.00;93815.25;4806875;29;20046;-58
2023/04/26 04:50:23;;;;;;;9.40;5.40;;;;;;;4.38;100.00;93810.25;4806478;29;20131;-59
2023/04/26 04:53:11;;;;;;;12.25;5.68;;;;;;;4.27;100.00;93818.34;4806725;29;20077;-58
2023/04/26 04:55:58;;;;;;;9.95;6.05;;;;;;;4.20;100.00;93829.13;4805735;29;20061;-58
2023/04/26 04:58:46;;;;;;;10.48;5.93;;;;;;;3.89;100.00;93825.03;4806338;29;20086;-58
2023/04/26 05:01:34;;;;;;;9.07;5.07;;;;;;;3.53;100.00;93836.31;4792677;29;20055;-58
2023/04/26 05:04:21;;;;;;;9.50;5.47;;;;;;;3.65;100.00;93840.69;4806463;29;20050;-66
2023/04/26 05:07:08;;;;;;;8.93;4.78;;;;;;;4.07;100.00;93844.97;4806400;29;20066;-58
2023/04/26 05:09:55;;;;;;;8.77;4.70;;;;;;;4.28;100.00;93844.31;4805720;29;20059;-58
2023/04/26 05:12:42;;;;;;;8.57;5.20;;;;;;;4.38;100.00;93832.75;4806531;29;20055;-58
2023/04/26 05:15:29;;;;;;;9.33;5.13;;;;;;;4.70;100.00;93839.56;4793086;29;20058;-58
2023/04/26 05:18:15;;;;;;;8.13;5.07;;;;;;;4.67;100.00;93849.25;4805088;29;20154;-58
2023/04/26 05:21:02;;;;;;;9.85;5.30;;;;;;;4.60;100.00;93847.25;4792883;29;20457;-58
2023/04/26 05:23:49;;;;;;;11.77;5.10;;;;;;;4.12;100.00;93854.69;4806406;29;20398;-59
2023/04/26 05:26:36;;;;;;;9.55;5.30;;;;;;;4.02;100.00;93856.16;4791375;29;20080;-58
2023/04/26 05:29:27;;;;;;;8.87;4.40;;;;;;;3.94;100.00;93858.06;4805345;29;20050;-60
2023/04/26 05:32:14;;;;;;;10.13;4.20;;;;;;;3.96;100.00;93865.78;4806028;29;20066;-59
2023/04/26 05:35:01;;;;;;;8.63;4.80;;;;;;;4.24;100.00;93859.81;4805505;29;20138;-58
2023/04/26 05:37:48;;;;;;;8.38;4.70;;;;;;;4.65;100.00;93861.66;4805760;29;20050;-58
2023/04/26 05:40:35;;;;;;;10.68;5.10;;;;;;;4.82;100.00;93858.28;4804804;29;20478;-58
2023/04/26 05:43:22;;;;;;;8.03;5.23;;;;;;;5.15;100.00;93861.91;4805321;29;20051;-58
2023/04/26 05:46:09;;;;;;;8.82;4.97;;;;;;;5.30;100.00;93857.34;4805526;29;20063;-58
2023/04/26 05:48:56;;;;;;;8.77;5.40;;;;;;;5.44;100.00;93859.34;4805740;29;20050;-58
2023/04/26 05:51:43;;;;;;;14.05;6.30;;;;;;;5.63;100.00;93858.22;4804949;29;20059;-58
2023/04/26 05:54:29;;;;;;;17.63;6.82;;;;;;;5.90;100.00;93853.22;4792227;29;20465;-58
2023/04/26 05:57:17;;;;;;;12.00;6.47;;;;;;;5.97;100.00;93851.28;4802727;29;20144;-58
2023/04/26 06:00:05;;;;;;;10.30;5.95;;;;;;;6.16;100.00;93852.88;4805944;29;20051;-57
2023/04/26 06:02:52;;;;;;;10.68;6.07;;;;;;;6.18;100.00;93852.50;4795906;29;20111;-57
2023/04/26 06:05:40;;;;;;;10.93;5.70;;;;;;;6.46;100.00;93853.63;4804981;29;20499;-57
2023/04/26 06:08:27;;;;;;;10.68;6.28;;;;;;;6.48;100.00;93860.28;4804016;29;20192;-57
2023/04/26 06:11:14;;;;;;;14.10;5.80;;;;;;;6.22;100.00;93858.72;4800776;29;20470;-57
2023/04/26 06:14:01;;;;;;;12.02;5.88;;;;;;;5.61;100.00;93861.31;4805453;29;20099;-58
2023/04/26 06:16:48;;;;;;;10.93;6.47;;;;;;;5.36;100.00;93870.19;4806446;29;20405;-55
2023/04/26 06:19:35;;;;;;;15.15;6.70;;;;;;;5.50;100.00;93871.41;4805771;29;20062;-58
2023/04/26 06:22:21;;;;;;;13.10;5.70;;;;;;;6.15;100.00;93875.81;4804888;29;20059;-59
2023/04/26 06:25:09;;;;;;;10.17;4.90;;;;;;;6.40;100.00;93872.34;4793767;29;20055;-58
2023/04/26 06:27:57;;;;;;;10.57;5.53;;;;;;;6.29;100.00;93874.28;4805859;29;20104;-55
2023/04/26 06:30:44;;;;;;;9.13;5.00;;;;;;;5.85;100.00;93869.94;4805812;29;20065;-59
2023/04/26 06:33:31;;;;;;;10.60;5.22;;;;;;;6.00;100.00;93877.75;4805463;29;20055;-59
2023/04/26 06:36:18;;;;;;;9.85;5.88;;;;;;;5.97;100.00;93878.53;4805081;29;20071;-59
2023/04/26 06:39:05;;;;;;;10.17;6.53;;;;;;;5.60;100.00;93884.25;4806100;29;20058;-58
2023/04/26 06:41:52;;;;;;;9.65;5.32;;;;;;;6.13;100.00;93880.09;4790751;29;20455;-58
2023/04/26 06:44:39;;;;;;;8.75;5.38;;;;;;;6.07;100.00;93870.75;4805263;29;20138;-58
2023/04/26 06:47:26;;;;;;;10.00;5.88;;;;;;;9.56;100.00;93875.94;4796576;29;20059;-58
2023/04/26 06:50:13;;;;;;;8.30;4.70;;;;;;;12.94;82.71;93865.06;4806054;29;20055;-59
2023/04/26 06:53:00;;;;;;;6.43;4.33;;;;;;;13.19;72.61;93864.41;4792730;29;20134;-60
2023/04/26 06:55:47;;;;;;;5.97;4.28;;;;;;;14.43;65.90;93853.03;4805370;29;20055;-62
2023/04/26 06:58:33;;;;;;;5.88;4.80;;;;;;;16.09;57.01;93849.00;4806269;29;20464;-60
2023/04/26 07:01:20;;;;;;;5.75;4.18;;;;;;;16.10;56.58;93861.63;4805713;29;20050;-60
2023/04/26 07:04:09;;;;;;;6.45;4.72;;;;;;;14.70;59.88;93860.13;4805920;29;20063;-59
2023/04/26 07:06:56;;;;;;;6.17;4.63;;;;;;;13.41;62.75;93856.38;4804882;29;20413;-59
2023/04/26 07:09:43;;;;;;;6.68;4.63;;;;;;;12.29;67.60;93854.78;4806023;29;20089;-59
2023/04/26 07:12:30;;;;;;;10.95;4.45;;;;;;;11.92;72.56;93848.53;4805883;29;20112;-59
2023/04/26 07:15:17;;;;;;;5.68;3.92;;;;;;;13.50;65.56;93851.00;4804332;29;20141;-59
2023/04/26 07:18:04;;;;;;;6.78;4.00;;;;;;;12.65;65.45;93851.22;4805240;29;20062;-59
2023/04/26 07:20:51;;;;;;;6.33;3.90;;;;;;;11.77;68.67;93845.28;4790479;29;20057;-58
2023/04/26 07:23:38;;;;;;;5.88;4.10;;;;;;;10.15;76.41;93853.59;4805617;29;20397;-59
2023/04/26 07:26:28;;;;;;;6.35;3.97;;;;;;;8.93;90.68;93855.13;4805123;29;20366;-58
2023/04/26 07:29:17;;;;;;;6.00;3.90;;;;;;;8.85;89.81;93845.41;4805551;29;20129;-58
2023/04/26 07:32:04;;;;;;;5.43;3.75;;;;;;;8.14;96.17;93844.78;4805328;29;20055;-59
2023/04/26 07:34:51;;;;;;;6.43;3.87;;;;;;;8.59;98.20;93844.06;4797838;29;20074;-58
2023/04/26 07:37:38;;;;;;;5.72;3.80;;;;;;;9.22;91.96;93837.59;4809213;29;20432;-58
2023/04/26 07:40:25;;;;;;;6.75;3.75;;;;;;;9.12;90.68;93837.31;4809384;29;20251;-59
2023/04/26 07:43:12;;;;;;;5.60;3.97;;;;;;;9.78;84.18;93836.13;4797882;29;20531;-58
2023/04/26 07:46:02;;;;;;;6.10;3.70;;;;;;;9.87;86.45;93832.84;4809186;29;20055;-59
2023/04/26 07:48:48;;;;;;;5.90;3.60;;;;;;;12.57;73.13;93836.84;4807993;29;20058;-59
2023/04/26 07:51:36;;;;;;;4.80;3.10;;;;;;;13.28;66.09;93831.50;4797164;29;20137;-59
2023/04/26 07:54:22;;;;;;;4.20;2.90;;;;;;;15.93;55.09;93832.59;4807202;29;20054;-60
2023/04/26 07:57:09;;;;;;;3.97;2.70;;;;;;;14.97;55.73;93826.50;4807735;29;20473;-60
2023/04/26 07:59:57;;;;;;;5.35;3.70;;;;;;;11.49;64.55;93830.13;4798698;29;20096;-59
2023/04/26 08:02:47;;;;;;;4.30;2.90;;;;;;;11.56;67.35;93835.50;4808965;29;20126;-59
2023/04/26 08:05:34;;;;;;;4.45;2.90;;;;;;;12.26;66.29;93831.66;4808817;29;20066;-59
2023/04/26 08:08:21;;;;;;;5.00;3.30;;;;;;;12.28;64.40;93826.50;4808412;29;20523;-59
2023/04/26 08:11:09;;;;;;;4.10;2.85;;;;;;;10.93;66.93;93828.09;4808781;29;20500;-59
2023/04/26 08:13:56;;;;;;;6.05;3.10;;;;;;;11.09;68.23;93839.16;4806738;29;20527;-59
2023/04/26 08:16:43;;;;;;;5.40;2.90;;;;;;;11.85;66.89;93835.69;4806221;29;20133;-59
2023/04/26 08:19:32;;;;;;;4.10;2.47;;;;;;;10.98;66.74;93838.56;4807247;29;20090;-59
2023/04/26 08:22:19;;;;;;;4.95;2.90;;;;;;;11.58;65.89;93844.88;4796673;29;20055;-59
2023/04/26 08:25:06;;;;;;;4.18;2.60;;;;;;;11.02;67.32;93842.03;4798739;29;20054;-58
2023/04/26 08:27:53;;;;;;;4.25;2.60;;;;;;;10.91;68.81;93847.72;4808307;29;20093;-59
2023/04/26 08:30:42;;;;;;;4.87;2.90;;;;;;;11.04;66.52;93847.88;4807185;29;20073;-59
2023/04/26 08:33:29;;;;;;;4.60;2.63;;;;;;;10.74;70.71;93854.28;4797681;29;20134;-58
2023/04/26 08:36:16;;;;;;;5.22;2.95;;;;;;;10.62;71.18;93857.63;4808374;29;20438;-59
2023/04/26 08:39:03;;;;;;;4.25;2.42;;;;;;;11.08;69.43;93851.31;4807329;29;20055;-59
2023/04/26 08:41:53;;;;;;;3.95;2.40;;;;;;;10.87;68.64;93847.00;4808373;29;20047;-59
2023/04/26 08:44:42;;;;;;;5.77;2.70;;;;;;;10.64;69.41;93841.50;4807287;29;20485;-58
2023/04/26 08:47:40;;;;;;;4.45;2.75;;;;;;;10.95;69.21;93848.44;4808321;29;20065;-58
2023/04/26 08:50:28;;;;;;;4.38;2.60;;;;;;;11.06;69.77;93842.72;4808417;29;20424;-59
2023/04/26 08:53:19;;;;;;;5.50;2.60;;;;;;;11.62;64.90;93846.78;4807969;29;20069;-59
2023/04/26 08:56:07;;;;;;;4.32;2.40;;;;;;;13.57;60.40;93841.75;4808143;29;20458;-59
2023/04/26 08:58:54;;;;;;;3.60;2.30;;;;;;;15.43;52.84;93843.44;4807737;29;20083;-59
2023/04/26 09:01:42;;;;;;;4.75;2.00;;;;;;;15.29;51.77;93841.19;4807290;29;20059;-60
2023/04/26 09:04:30;;;;;;;3.15;2.03;;;;;;;17.07;46.93;93846.00;4807670;29;20477;-60
2023/04/26 09:07:29;;;;;;;3.10;1.80;;;;;;;20.51;40.06;93823.22;4806485;29;20098;-57
2023/04/26 09:10:21;;;;;;;3.10;2.00;;;;;;;17.27;42.95;93820.63;4807503;29;20065;-58
2023/04/26 09:13:08;;;;;;;4.67;2.00;;;;;;;15.41;46.12;93817.47;4807098;29;20055;-57
2023/04/26 09:15:55;;;;;;;3.45;2.25;;;;;;;11.29;57.98;93838.38;4805228;29;20051;-58
2023/04/26 09:18:53;;;;;;;3.50;2.22;;;;;;;12.65;52.57;93824.44;4798013;29;20119;-57
2023/04/26 09:21:45;;;;;;;3.63;2.08;;;;;;;14.43;47.45;93824.63;4805225;29;20074;-57
2023/04/26 09:24:49;;;;;;;3.53;2.10;;;;;;;14.81;45.53;93819.13;4805869;29;20055;-57
2023/04/26 09:27:39;;;;;;;4.50;2.67;;;;;;;12.13;51.66;93831.56;4806031;29;20393;-67
2023/04/26 09:30:27;;;;;;;4.22;2.22;;;;;;;12.52;54.04;93818.88;4806854;29;20061;-59
2023/04/26 09:33:14;;;;;;;3.88;2.20;;;;;;;12.97;51.48;93823.63;4806478;29;20412;-59
2023/04/26 09:36:12;;;;;;;5.65;3.50;;;;;;;11.89;56.23;93819.13;4793079;29;20047;-59
2023/04/26 09:38:59;;;;;;;10.77;6.57;;;;;;;12.07;58.63;93816.00;4797026;29;20561;-59
2023/04/26 09:41:45;;;;;;;8.73;4.67;;;;;;;10.46;65.25;93823.38;4806390;29;20050;-59
2023/04/26 09:44:32;;;;;;;11.02;6.65;;;;;;;10.85;66.46;93819.19;4792798;29;20454;-59
2023/04/26 09:47:20;;;;;;;8.75;5.25;;;;;;;11.17;64.92;93832.34;4805561;29;20050;-59
2023/04/26 09:50:08;;;;;;;11.50;6.13;;;;;;;10.78;66.39;93833.84;4804249;29;20043;-58
2023/04/26 09:52:55;;;;;;;7.20;4.10;;;;;;;9.98;69.18;93835.47;4805372;29;20062;-59
2023/04/26 09:55:42;;;;;;;9.30;4.07;;;;;;;10.15;69.53;93828.91;4804699;29;20058;-59
2023/04/26 09:58:29;;;;;;;8.95;4.32;;;;;;;8.98;77.49;93823.78;4806232;29;20059;-59
2023/04/26 10:01:17;;;;;;;6.22;3.58;;;;;;;9.14;76.09;93829.47;4806280;29;20257;-59
2023/04/26 10:04:06;;;;;;;8.13;4.00;;;;;;;9.43;73.72;93831.09;4796923;29;20054;-59
2023/04/26 10:06:53;;;;;;;6.13;3.25;;;;;;;9.22;72.67;93829.41;4805910;29;20401;-59
2023/04/26 10:09:41;;;;;;;5.80;3.17;;;;;;;9.10;75.37;93831.47;4805802;29;20100;-59
2023/04/26 10:12:28;;;;;;;7.45;3.30;;;;;;;8.82;77.07;93829.81;4806139;29;20058;-60
2023/04/26 10:15:16;;;;;;;7.45;3.33;;;;;;;10.18;71.00;93822.63;4804276;29;20128;-59
2023/04/26 10:18:03;;;;;;;7.80;3.63;;;;;;;10.02;69.93;93813.44;4805193;29;20063;-59
2023/04/26 10:20:54;;;;;;;7.55;3.33;;;;;;;10.95;66.39;93820.19;4805994;29;20054;-59
2023/04/26 10:23:42;;;;;;;5.70;3.43;;;;;;;10.41;64.60;93818.38;4805997;29;20194;-59
2023/04/26 10:26:56;;;;;;;5.35;3.00;;;;;;;11.08;64.70;93812.09;4805923;29;20047;-59
2023/04/26 10:29:55;;;;;;;4.63;3.03;;;;;;;11.17;65.06;93812.34;4805976;29;20053;-59
2023/04/26 10:32:56;;;;;;;5.78;2.80;;;;;;;13.57;56.91;93800.41;4806582;29;20066;-60
2023/04/26 10:36:12;;;;;;;4.93;2.63;;;;;;;13.57;54.83;93798.41;4806261;29;20063;-59
2023/04/26 10:39:22;;;;;;;4.50;2.80;;;;;;;12.36;57.85;93808.63;4806091;29;20055;-59
2023/04/26 10:42:23;;;;;;;4.47;3.13;;;;;;;12.25;58.67;93807.31;4796846;29;20143;-59
2023/04/26 10:45:26;;;;;;;5.10;2.78;;;;;;;12.84;55.11;93811.00;4805486;29;20050;-59
2023/04/26 10:48:20;;;;;;;4.88;2.85;;;;;;;12.63;54.92;93793.06;4805470;29;20059;-59
2023/04/26 10:51:07;;;;;;;4.57;2.50;;;;;;;13.34;52.52;93790.41;4806013;29;20059;-59
2023/04/26 10:53:55;;;;;;;5.10;2.90;;;;;;;13.39;52.37;93792.63;4794034;29;20501;-59
2023/04/26 10:56:42;;;;;;;6.88;3.00;;;;;;;14.37;50.36;93800.34;4805316;29;20160;-59
2023/04/26 10:59:29;;;;;;;4.78;2.97;;;;;;;15.15;48.98;93787.94;4806270;29;20066;-59
2023/04/26 11:02:50;;;;;;;5.03;3.30;;;;;;;14.99;47.69;93790.88;4805798;29;20047;-59
2023/04/26 11:05:54;;;;;;;5.00;3.10;;;;;;;11.68;52.97;93790.09;4796450;29;20445;-59
2023/04/26 11:08:42;;;;;;;5.07;3.20;;;;;;;11.10;55.91;93785.78;4805775;29;20043;-59
2023/04/26 11:11:31;;;;;;;5.00;3.30;;;;;;;12.05;54.39;93783.41;4804220;29;20134;-59
2023/04/26 11:14:18;;;;;;;6.88;3.10;;;;;;;12.99;53.26;93776.38;4803423;29;20627;-59
2023/04/26 11:17:05;;;;;;;5.25;2.83;;;;;;;12.32;54.09;93779.66;4805694;29;20055;-59
2023/04/26 11:19:53;;;;;;;6.85;3.90;;;;;;;9.94;61.00;93777.94;4804117;29;20116;-59
2023/04/26 11:22:40;;;;;;;6.43;3.60;;;;;;;10.15;61.51;93776.06;4805222;29;20054;-59
2023/04/26 11:25:29;;;;;;;5.95;3.50;;;;;;;11.38;58.48;93770.69;4792150;29;20051;-59
2023/04/26 11:28:17;;;;;;;6.22;3.70;;;;;;;11.16;58.01;93767.59;4794933;29;20130;-59
2023/04/26 11:31:06;;;;;;;5.38;3.40;;;;;;;12.18;56.31;93770.53;4805335;29;20519;-59
2023/04/26 11:33:53;;;;;;;6.28;3.40;;;;;;;11.30;56.25;93772.03;4805622;29;20066;-59
2023/04/26 11:36:40;;;;;;;5.83;3.50;;;;;;;11.22;58.05;93775.34;4805532;29;20416;-59
2023/04/26 11:39:27;;;;;;;7.93;3.40;;;;;;;12.04;55.69;93776.38;4804900;29;20145;-59
2023/04/26 11:42:14;;;;;;;5.63;3.30;;;;;;;12.24;54.82;93779.03;4805538;29;20074;-59
2023/04/26 11:45:05;;;;;;;9.23;5.43;;;;;;;12.96;53.86;93769.00;4805098;29;20065;-59
2023/04/26 11:47:53;;;;;;;6.47;3.83;;;;;;;11.23;56.88;93768.66;4804665;29;20061;-60
2023/04/26 11:50:40;;;;;;;5.97;3.70;;;;;;;10.15;59.84;93774.06;4805170;29;20545;-59
2023/04/26 11:53:40;;;;;;;6.13;3.42;;;;;;;12.62;56.36;93770.25;4805467;29;20461;-59
2023/04/26 11:56:27;;;;;;;6.30;3.40;;;;;;;12.65;54.98;93763.09;4805341;29;20062;-60
2023/04/26 11:59:23;;;;;;;5.28;3.65;;;;;;;10.16;59.41;93772.09;4805405;29;20183;-59
2023/04/26 12:02:10;;;;;;;7.35;3.60;;;;;;;10.87;59.10;93769.38;4805630;29;20078;-59
2023/04/26 12:04:58;;;;;;;6.03;3.37;;;;;;;12.03;56.39;93776.78;4804174;29;20078;-59
2023/04/26 12:07:49;;;;;;;5.65;3.15;;;;;;;13.61;52.83;93764.47;4805164;29;20057;-58
2023/04/26 12:10:36;;;;;;;5.40;3.13;;;;;;;14.23;50.09;93759.41;4793187;29;20054;-59
2023/04/26 12:13:24;;;;;;;5.88;2.95;;;;;;;14.60;48.85;93765.34;4805093;29;20388;-59
2023/04/26 12:16:14;;;;;;;6.65;2.72;;;;;;;14.40;48.89;93762.81;4805238;29;20055;-59
2023/04/26 12:19:12;;;;;;;6.70;3.60;;;;;;;13.98;50.04;93768.47;4797874;29;20524;-59
2023/04/26 12:21:59;;;;;;;4.38;2.97;;;;;;;12.86;51.32;93773.56;4807413;29;20481;-60
2023/04/26 12:24:46;;;;;;;5.72;3.03;;;;;;;13.88;50.04;93762.03;4807743;29;20046;-59
2023/04/26 12:27:33;;;;;;;5.50;2.92;;;;;;;13.90;49.46;93759.63;4806733;29;20066;-59
2023/04/26 12:30:21;;;;;;;5.88;2.78;;;;;;;14.48;48.14;93755.06;4808469;29;20116;-58
2023/04/26 12:33:08;;;;;;;6.00;3.17;;;;;;;15.16;47.36;93766.59;4796192;29;20059;-59
2023/04/26 12:36:08;;;;;;;14.18;3.10;;;;;;;14.57;47.89;93758.72;4807049;29;20057;-59
2023/04/26 12:38:55;;;;;;;7.70;3.00;;;;;;;14.57;46.43;93755.97;4808056;29;20553;-59
2023/04/26 12:41:43;;;;;;;6.20;2.72;;;;;;;14.82;46.00;93753.56;4798404;29;20123;-59
2023/04/26 12:44:30;;;;;;;5.10;2.83;;;;;;;14.38;46.32;93751.44;4794152;29;20443;-59
2023/04/26 12:47:17;;;;;;;4.63;2.90;;;;;;;13.91;48.10;93752.91;4806430;29;20059;-60
2023/04/26 12:50:05;;;;;;;4.35;2.70;;;;;;;13.93;48.38;93746.94;4808040;29;20055;-58
2023/04/26 12:52:52;;;;;;;5.13;2.67;;;;;;;14.05;46.82;93743.41;4806440;29;20414;-60
2023/04/26 12:55:39;;;;;;;4.07;2.60;;;;;;;13.44;48.14;93749.97;4807260;29;20062;-59
2023/04/26 12:58:27;;;;;;;3.95;2.60;;;;;;;13.13;48.48;93742.91;4807602;29;20069;-60
2023/04/26 13:01:14;;;;;;;5.97;3.03;;;;;;;13.81;47.57;93740.22;4807607;29;20054;-59
2023/04/26 13:04:04;;;;;;;4.95;2.60;;;;;;;14.35;46.57;93741.28;4807839;29;20055;-59
2023/04/26 13:06:51;;;;;;;4.95;2.83;;;;;;;13.15;49.88;93746.00;4807558;29;20191;-59
2023/04/26 13:09:38;;;;;;;5.05;2.60;;;;;;;13.34;50.30;93741.59;4806113;29;20104;-59